Time;durP1;ratioP1;P1;durP2;ratioP2;P2;SDS_P1;SDS_P2;PMS_P1;PMS_P2;Temp;Humidity;BMP_temperature;BMP_pressure;BME280_temperature;BME280_humidity;BME280_pressure;Samples;Min_cycle;Max_cycle;Signal;HPM_P1;HPM_P2
2021/12/03 00:01:07;;;;;;;2.97;1.10;;;4.20;99.90;;;;;;5029404;28;20491;-73
2021/12/03 00:03:34;;;;;;;2.75;1.38;;;4.30;99.90;;;;;;5011370;28;20120;-73
2021/12/03 00:06:00;;;;;;;1.75;1.20;;;4.30;99.90;;;;;;5029384;28;20076;-73
2021/12/03 00:08:26;;;;;;;3.47;1.55;;;4.30;99.90;;;;;;5028872;28;20055;-73
2021/12/03 00:10:56;;;;;;;3.90;1.52;;;4.30;99.90;;;;;;5031331;28;20036;-73
2021/12/03 00:13:22;;;;;;;5.82;1.75;;;4.30;99.90;;;;;;5030048;28;20037;-73
2021/12/03 00:15:49;;;;;;;4.45;1.42;;;4.40;99.90;;;;;;5011224;28;20487;-73
2021/12/03 00:18:14;;;;;;;4.70;1.60;;;4.40;99.90;;;;;;5029142;28;20048;-73
2021/12/03 00:20:40;;;;;;;4.03;1.25;;;4.40;99.90;;;;;;5028910;28;20498;-73
2021/12/03 00:23:06;;;;;;;1.08;0.90;;;4.40;99.90;;;;;;5029175;28;20030;-73
2021/12/03 00:25:33;;;;;;;2.05;1.30;;;4.50;99.90;;;;;;5012598;28;20128;-73
2021/12/03 00:27:59;;;;;;;2.45;1.27;;;4.40;99.90;;;;;;5028749;28;20025;-73
2021/12/03 00:30:25;;;;;;;2.65;1.08;;;4.40;99.90;;;;;;5028762;28;20017;-73
2021/12/03 00:32:51;;;;;;;2.13;1.17;;;4.50;99.90;;;;;;5029058;28;20021;-73
2021/12/03 00:35:17;;;;;;;2.67;1.05;;;4.40;99.90;;;;;;5028639;28;20466;-74
2021/12/03 00:37:44;;;;;;;4.90;0.93;;;4.50;99.90;;;;;;5029944;28;20284;-73
2021/12/03 00:40:13;;;;;;;1.45;0.88;;;4.50;99.90;;;;;;5028469;28;20056;-73
2021/12/03 00:42:40;;;;;;;4.13;1.08;;;4.30;99.90;;;;;;5010696;28;20103;-73
2021/12/03 00:45:07;;;;;;;2.25;1.10;;;4.30;99.90;;;;;;5028549;28;20076;-73
2021/12/03 00:47:33;;;;;;;2.00;1.50;;;4.30;99.90;;;;;;5028847;28;20026;-73
2021/12/03 00:49:59;;;;;;;2.22;1.27;;;4.30;99.90;;;;;;5029418;28;20021;-73
2021/12/03 00:52:25;;;;;;;1.65;1.00;;;4.30;99.90;;;;;;5029276;28;20025;-73
2021/12/03 00:54:51;;;;;;;3.33;1.50;;;4.40;99.90;;;;;;5010770;28;20075;-73
2021/12/03 00:57:17;;;;;;;2.45;0.88;;;4.40;99.90;;;;;;5028106;28;20040;-73
2021/12/03 00:59:43;;;;;;;5.03;1.02;;;4.40;99.90;;;;;;5028415;28;20446;-73
2021/12/03 01:02:09;;;;;;;2.38;1.10;;;4.40;99.90;;;;;;5010803;28;20517;-73
2021/12/03 01:04:35;;;;;;;5.70;1.40;;;4.40;99.90;;;;;;5029476;28;20026;-73
2021/12/03 01:07:00;;;;;;;1.92;1.00;;;4.50;99.90;;;;;;5027360;28;20037;-73
2021/12/03 01:09:26;;;;;;;2.25;1.23;;;4.50;99.90;;;;;;5028433;28;20447;-73
2021/12/03 01:11:52;;;;;;;2.53;0.90;;;4.60;99.90;;;;;;5028128;28;20661;-73
2021/12/03 01:14:19;;;;;;;1.10;1.00;;;4.60;99.90;;;;;;5028569;28;20022;-73
2021/12/03 01:16:45;;;;;;;3.60;0.93;;;4.70;99.90;;;;;;5030056;28;20053;-73
2021/12/03 01:19:12;;;;;;;5.28;1.70;;;4.60;99.90;;;;;;5010006;28;20516;-73
2021/12/03 01:21:38;;;;;;;1.92;1.02;;;4.70;99.90;;;;;;5010468;28;20035;-73
2021/12/03 01:24:05;;;;;;;3.22;1.08;;;4.60;99.90;;;;;;5028031;28;20021;-73
2021/12/03 01:26:33;;;;;;;3.65;1.40;;;4.60;99.90;;;;;;5028320;28;20044;-73
2021/12/03 01:28:59;;;;;;;5.78;1.80;;;4.60;99.90;;;;;;5028589;28;20071;-73
2021/12/03 01:31:25;;;;;;;2.83;1.10;;;4.50;99.90;;;;;;5011916;28;20041;-73
2021/12/03 01:33:51;;;;;;;4.38;1.38;;;4.60;99.90;;;;;;5028032;28;20025;-73
2021/12/03 01:36:17;;;;;;;2.70;1.67;;;4.50;99.90;;;;;;5027949;28;20035;-73
2021/12/03 01:38:43;;;;;;;2.47;1.30;;;4.50;99.90;;;;;;5028131;28;20072;-73
2021/12/03 01:41:10;;;;;;;3.80;1.60;;;4.50;99.90;;;;;;5027913;28;20502;-73
2021/12/03 01:43:36;;;;;;;2.78;1.13;;;4.50;99.90;;;;;;5029743;28;20083;-73
2021/12/03 01:46:05;;;;;;;3.90;1.30;;;4.40;99.90;;;;;;5028246;28;20055;-73
2021/12/03 01:48:31;;;;;;;5.43;1.85;;;4.30;99.90;;;;;;5027505;28;20526;-73
2021/12/03 01:50:58;;;;;;;3.60;2.15;;;4.30;99.90;;;;;;5010290;28;20033;-73
2021/12/03 01:53:28;;;;;;;5.32;1.95;;;4.30;99.90;;;;;;5028027;28;20025;-73
2021/12/03 01:55:57;;;;;;;2.40;1.13;;;4.30;99.90;;;;;;5028884;28;20067;-73
2021/12/03 01:58:23;;;;;;;4.93;1.73;;;4.30;99.90;;;;;;5030762;28;20045;-73
2021/12/03 02:00:53;;;;;;;2.10;0.88;;;4.30;99.90;;;;;;5031870;28;20076;-73
2021/12/03 02:03:24;;;;;;;3.03;1.15;;;4.30;99.90;;;;;;5031934;28;20021;-73
2021/12/03 02:05:50;;;;;;;1.17;1.05;;;4.20;99.90;;;;;;5031548;28;20037;-73
2021/12/03 02:08:16;;;;;;;2.65;1.20;;;4.10;99.90;;;;;;5031389;28;20014;-73
2021/12/03 02:10:42;;;;;;;2.55;1.52;;;4.00;99.90;;;;;;5032978;28;20028;-73
2021/12/03 02:13:10;;;;;;;5.35;1.30;;;4.00;99.90;;;;;;5031513;28;20026;-73
2021/12/03 02:15:37;;;;;;;5.20;1.80;;;3.90;99.90;;;;;;5031389;28;20021;-73
2021/12/03 02:18:04;;;;;;;2.72;1.40;;;3.90;99.90;;;;;;5031202;28;20026;-73
2021/12/03 02:20:30;;;;;;;3.15;1.17;;;4.00;99.90;;;;;;5031368;28;20030;-73
2021/12/03 02:22:56;;;;;;;3.38;1.38;;;4.00;99.90;;;;;;5031952;28;20411;-74
2021/12/03 02:25:23;;;;;;;2.90;1.20;;;3.90;99.90;;;;;;5014633;28;20026;-74
2021/12/03 02:27:52;;;;;;;3.22;1.25;;;3.80;99.90;;;;;;5031613;28;20040;-73
2021/12/03 02:30:19;;;;;;;3.25;1.73;;;3.70;99.90;;;;;;5031450;28;20126;-73
2021/12/03 02:32:49;;;;;;;4.78;1.67;;;3.60;99.90;;;;;;5031030;28;20037;-73
2021/12/03 02:35:16;;;;;;;3.00;1.65;;;3.60;99.90;;;;;;5013390;28;20486;-73
2021/12/03 02:37:42;;;;;;;6.22;1.98;;;3.60;99.90;;;;;;5032373;28;20059;-73
2021/12/03 02:40:08;;;;;;;5.15;1.40;;;3.60;99.90;;;;;;5013307;28;20506;-73
2021/12/03 02:42:34;;;;;;;3.08;1.83;;;3.50;99.90;;;;;;5013077;28;20490;-73
2021/12/03 02:45:00;;;;;;;4.10;1.55;;;3.40;99.90;;;;;;5030897;28;20041;-73
2021/12/03 02:47:26;;;;;;;4.97;1.42;;;3.40;99.90;;;;;;5031104;28;20096;-73
2021/12/03 02:49:52;;;;;;;5.45;1.60;;;3.40;99.90;;;;;;5032687;28;20670;-73
2021/12/03 02:52:18;;;;;;;3.47;1.70;;;3.40;99.90;;;;;;5031071;28;20536;-73
2021/12/03 02:54:43;;;;;;;2.30;1.50;;;3.30;99.90;;;;;;5030203;28;20529;-73
2021/12/03 02:57:09;;;;;;;2.75;1.42;;;3.40;99.90;;;;;;5030614;28;20513;-73
2021/12/03 02:59:35;;;;;;;5.25;1.42;;;3.30;99.90;;;;;;5030942;28;20017;-73
2021/12/03 03:02:03;;;;;;;3.78;1.40;;;3.30;99.90;;;;;;5012745;28;20034;-73
2021/12/03 03:04:28;;;;;;;7.60;2.05;;;3.30;99.90;;;;;;5032182;28;20017;-73
2021/12/03 03:06:55;;;;;;;8.25;2.00;;;3.30;99.90;;;;;;5030396;28;20120;-73
2021/12/03 03:09:20;;;;;;;1.65;1.30;;;3.30;99.90;;;;;;5029177;28;20026;-73
2021/12/03 03:11:46;;;;;;;2.72;1.80;;;3.20;99.90;;;;;;5030661;28;20060;-73
2021/12/03 03:14:12;;;;;;;5.70;2.20;;;3.20;99.90;;;;;;5030710;28;20108;-73
2021/12/03 03:16:38;;;;;;;3.42;1.50;;;3.10;99.90;;;;;;5031745;28;20096;-73
2021/12/03 03:19:18;;;;;;;2.88;1.55;;;3.10;99.90;;;;;;5030405;28;20037;-73
2021/12/03 03:21:45;;;;;;;6.35;2.38;;;3.10;99.90;;;;;;5030011;28;20034;-73
2021/12/03 03:24:11;;;;;;;4.47;2.20;;;3.00;99.90;;;;;;5012396;28;20033;-73
2021/12/03 03:26:40;;;;;;;2.42;1.73;;;3.00;99.90;;;;;;5030322;28;20025;-73
2021/12/03 03:29:08;;;;;;;3.15;1.50;;;3.10;99.90;;;;;;5030349;28;20110;-73
2021/12/03 03:31:36;;;;;;;2.55;1.77;;;3.00;99.90;;;;;;5031191;28;20075;-73
2021/12/03 03:34:03;;;;;;;3.75;1.77;;;3.00;99.90;;;;;;5029988;28;20049;-73
2021/12/03 03:36:38;;;;;;;7.40;2.00;;;3.10;99.90;;;;;;5027956;28;20018;-73
2021/12/03 03:39:07;;;;;;;4.22;1.60;;;2.90;99.90;;;;;;5029391;28;20037;-73
2021/12/03 03:41:33;;;;;;;5.40;1.88;;;3.00;99.90;;;;;;5030197;28;20025;-73
2021/12/03 03:43:59;;;;;;;4.82;1.90;;;3.00;99.90;;;;;;5030258;28;20096;-72
2021/12/03 03:46:25;;;;;;;3.80;2.10;;;3.00;99.90;;;;;;5031000;28;20511;-73
2021/12/03 03:48:51;;;;;;;4.95;1.98;;;3.00;99.90;;;;;;5029978;28;20061;-73
2021/12/03 03:51:17;;;;;;;2.85;2.05;;;3.00;99.90;;;;;;5029460;28;20053;-73
2021/12/03 03:53:43;;;;;;;5.53;2.55;;;3.00;99.90;;;;;;5029604;28;20029;-73
2021/12/03 03:56:10;;;;;;;3.53;2.65;;;2.90;99.90;;;;;;5029462;28;20022;-73
2021/12/03 03:58:41;;;;;;;3.83;1.88;;;2.90;99.90;;;;;;5031273;28;20244;-73
2021/12/03 04:01:09;;;;;;;2.33;1.73;;;3.00;99.90;;;;;;5029564;28;20276;-73
2021/12/03 04:03:35;;;;;;;4.68;2.13;;;2.90;99.90;;;;;;5029159;28;20025;-73
2021/12/03 04:06:01;;;;;;;1.92;1.63;;;3.00;99.90;;;;;;5029521;28;20019;-73
2021/12/03 04:08:30;;;;;;;2.75;1.50;;;3.00;99.90;;;;;;5029047;28;20104;-73
2021/12/03 04:11:00;;;;;;;2.45;1.70;;;3.10;99.90;;;;;;5030507;28;20026;-73
2021/12/03 04:13:27;;;;;;;2.80;1.55;;;3.10;99.90;;;;;;5030860;28;20021;-72
2021/12/03 04:15:53;;;;;;;2.58;1.55;;;3.10;99.90;;;;;;5029330;28;20080;-73
2021/12/03 04:18:19;;;;;;;4.90;1.73;;;3.00;99.90;;;;;;5029224;28;20022;-73
2021/12/03 04:20:45;;;;;;;5.60;1.75;;;2.90;99.90;;;;;;5029361;28;20026;-73
2021/12/03 04:23:16;;;;;;;2.50;1.40;;;2.80;99.90;;;;;;5029246;28;20099;-73
2021/12/03 04:25:42;;;;;;;3.05;1.70;;;2.90;99.90;;;;;;5030664;28;20079;-73
2021/12/03 04:28:08;;;;;;;3.83;2.28;;;2.90;99.90;;;;;;5029064;28;20041;-74
2021/12/03 04:30:34;;;;;;;4.28;2.08;;;2.70;99.90;;;;;;5028888;28;20029;-73
2021/12/03 04:33:00;;;;;;;5.32;2.25;;;2.90;99.90;;;;;;5029070;28;20487;-73
2021/12/03 04:35:26;;;;;;;6.65;2.30;;;2.80;99.90;;;;;;5028995;28;20129;-73
2021/12/03 04:37:52;;;;;;;4.28;1.70;;;2.90;99.90;;;;;;5030565;28;20021;-73
2021/12/03 04:40:20;;;;;;;3.83;2.47;;;3.00;99.90;;;;;;5029302;28;20025;-73
2021/12/03 04:42:46;;;;;;;4.63;2.05;;;3.00;99.90;;;;;;5028566;28;20026;-73
2021/12/03 04:45:14;;;;;;;5.88;2.60;;;3.00;99.90;;;;;;5010765;28;20049;-73
2021/12/03 04:47:40;;;;;;;3.13;1.92;;;3.00;99.90;;;;;;5028949;28;20037;-73
2021/12/03 04:50:09;;;;;;;5.40;2.13;;;3.00;99.90;;;;;;5029210;28;20022;-73
2021/12/03 04:52:35;;;;;;;3.92;2.38;;;3.10;99.90;;;;;;5030289;28;20025;-73
2021/12/03 04:55:01;;;;;;;5.95;2.50;;;3.10;99.90;;;;;;5028457;28;20017;-73
2021/12/03 04:57:27;;;;;;;7.65;2.72;;;3.20;99.90;;;;;;5028550;28;20082;-73
2021/12/03 04:59:52;;;;;;;6.68;2.70;;;3.20;99.90;;;;;;5028952;28;20491;-73
2021/12/03 05:02:20;;;;;;;6.90;2.95;;;3.00;99.90;;;;;;5028832;28;20033;-73
2021/12/03 05:04:47;;;;;;;7.75;3.40;;;3.10;99.90;;;;;;5030210;28;20021;-73
2021/12/03 05:07:28;;;;;;;8.95;3.30;;;3.10;99.90;;;;;;5027975;28;20157;-73
2021/12/03 05:09:54;;;;;;;6.32;2.88;;;3.10;99.90;;;;;;5027972;28;20025;-73
2021/12/03 05:12:20;;;;;;;3.88;2.95;;;3.10;99.90;;;;;;5028341;28;20030;-73
2021/12/03 05:14:45;;;;;;;5.07;3.13;;;3.00;99.90;;;;;;5028387;28;20026;-74
2021/12/03 05:17:11;;;;;;;4.82;2.70;;;3.10;99.90;;;;;;5028400;28;20104;-73
2021/12/03 05:19:37;;;;;;;5.80;3.13;;;3.20;99.90;;;;;;5029877;28;20053;-73
2021/12/03 05:22:03;;;;;;;4.80;2.20;;;3.20;99.90;;;;;;5010379;28;20537;-73
2021/12/03 05:24:28;;;;;;;3.90;2.35;;;3.20;99.90;;;;;;5027761;28;20507;-73
2021/12/03 05:26:55;;;;;;;3.63;2.08;;;3.20;99.90;;;;;;5028380;28;20032;-73
2021/12/03 05:29:21;;;;;;;3.58;2.42;;;3.20;99.90;;;;;;5027936;28;20041;-73
2021/12/03 05:31:47;;;;;;;4.10;2.65;;;3.10;99.90;;;;;;5029508;28;20029;-73
2021/12/03 05:34:15;;;;;;;4.72;2.85;;;3.00;99.90;;;;;;5031419;28;20554;-73
2021/12/03 05:36:42;;;;;;;3.35;2.25;;;3.00;99.90;;;;;;5014265;28;20079;-73
2021/12/03 05:39:07;;;;;;;2.65;2.10;;;3.00;99.90;;;;;;5032238;28;20033;-73
2021/12/03 05:41:34;;;;;;;4.30;2.40;;;3.00;99.90;;;;;;5031745;28;20497;-73
2021/12/03 05:44:00;;;;;;;2.50;2.10;;;2.90;99.90;;;;;;5032379;28;20049;-73
2021/12/03 05:46:26;;;;;;;3.42;2.40;;;2.90;99.90;;;;;;5033458;28;20041;-73
2021/12/03 05:48:52;;;;;;;3.45;2.25;;;2.90;99.90;;;;;;5032336;28;20428;-73
2021/12/03 05:51:18;;;;;;;9.52;3.10;;;2.70;99.90;;;;;;5013999;28;20083;-73
2021/12/03 05:53:44;;;;;;;5.05;3.03;;;2.60;99.90;;;;;;5031961;28;20032;-73
2021/12/03 05:56:10;;;;;;;6.80;2.45;;;2.60;99.90;;;;;;5031517;28;20468;-73
2021/12/03 05:58:35;;;;;;;5.45;2.92;;;2.60;99.90;;;;;;5033542;28;20093;-73
2021/12/03 06:01:01;;;;;;;7.90;3.47;;;2.50;99.90;;;;;;5031551;28;20026;-72
2021/12/03 06:03:27;;;;;;;6.38;3.30;;;2.40;99.90;;;;;;5031377;28;20113;-73
2021/12/03 06:05:53;;;;;;;4.43;3.22;;;2.40;99.90;;;;;;5031777;28;20024;-73
2021/12/03 06:08:19;;;;;;;8.05;3.08;;;2.40;99.90;;;;;;5031565;28;20021;-73
2021/12/03 06:10:45;;;;;;;7.75;3.63;;;2.30;99.90;;;;;;5032810;28;20026;-73
2021/12/03 06:13:10;;;;;;;6.40;3.58;;;2.40;99.90;;;;;;5030971;28;20402;-73
2021/12/03 06:15:36;;;;;;;8.82;4.85;;;2.40;99.90;;;;;;5031626;28;20021;-73
2021/12/03 06:18:02;;;;;;;10.27;5.60;;;2.40;99.90;;;;;;5013873;28;20499;-73
2021/12/03 06:20:28;;;;;;;13.68;5.57;;;2.40;99.90;;;;;;5031308;28;20022;-73
2021/12/03 06:22:54;;;;;;;10.40;5.70;;;2.50;99.90;;;;;;5032819;28;20040;-74
2021/12/03 06:25:21;;;;;;;14.05;6.72;;;2.50;99.90;;;;;;5031766;28;20087;-73
2021/12/03 06:27:47;;;;;;;13.55;6.00;;;2.50;99.90;;;;;;5031098;28;20021;-73
2021/12/03 06:30:16;;;;;;;13.27;6.38;;;2.50;99.90;;;;;;5031361;28;20037;-73
2021/12/03 06:32:41;;;;;;;11.32;5.18;;;2.40;99.90;;;;;;5031465;28;20044;-73
2021/12/03 06:35:10;;;;;;;13.07;5.47;;;2.40;99.90;;;;;;5031530;28;20025;-73
2021/12/03 06:37:37;;;;;;;10.77;4.60;;;2.40;99.90;;;;;;5032680;28;20167;-73
2021/12/03 06:40:10;;;;;;;15.18;6.30;;;2.30;99.90;;;;;;5030556;28;20036;-73
2021/12/03 06:42:36;;;;;;;14.45;6.47;;;2.30;99.90;;;;;;5030587;28;20026;-73
2021/12/03 06:45:05;;;;;;;16.25;6.18;;;2.40;99.90;;;;;;5030720;28;20529;-73
2021/12/03 06:47:31;;;;;;;11.23;7.13;;;2.30;99.90;;;;;;5031455;28;20021;-73
2021/12/03 06:49:57;;;;;;;9.25;5.20;;;2.30;99.90;;;;;;5013597;28;20025;-72
2021/12/03 06:52:23;;;;;;;9.32;5.47;;;2.30;99.90;;;;;;5031871;28;20025;-72
2021/12/03 06:54:56;;;;;;;12.00;5.03;;;2.30;99.90;;;;;;5030371;28;20032;-73
2021/12/03 06:57:22;;;;;;;8.63;4.13;;;2.30;99.90;;;;;;5030598;28;20022;-72
2021/12/03 06:59:47;;;;;;;8.15;4.32;;;2.20;99.90;;;;;;5030913;28;20088;-73
2021/12/03 07:02:13;;;;;;;9.18;4.07;;;2.20;99.90;;;;;;5031002;28;20487;-73
2021/12/03 07:04:40;;;;;;;9.43;4.13;;;2.30;99.90;;;;;;5014250;28;20546;-73
2021/12/03 07:07:06;;;;;;;7.25;4.05;;;2.30;99.90;;;;;;5011928;28;20052;-72
2021/12/03 07:09:32;;;;;;;5.50;3.50;;;2.30;99.90;;;;;;5030140;28;20479;-73
2021/12/03 07:11:57;;;;;;;4.88;3.75;;;2.30;99.90;;;;;;5030696;28;20033;-73
2021/12/03 07:14:23;;;;;;;6.68;3.78;;;2.20;99.90;;;;;;5030541;28;20058;-73
2021/12/03 07:16:49;;;;;;;7.78;4.45;;;2.20;99.90;;;;;;5031992;28;20033;-73
2021/12/03 07:19:15;;;;;;;8.32;4.10;;;2.10;99.90;;;;;;5029882;28;21290;-73
2021/12/03 07:21:40;;;;;;;8.82;4.03;;;2.10;99.90;;;;;;5030160;28;20025;-73
2021/12/03 07:24:06;;;;;;;7.47;4.55;;;2.20;99.90;;;;;;5029952;28;20430;-74
2021/12/03 07:26:32;;;;;;;8.18;5.40;;;2.10;99.90;;;;;;5030364;28;20031;-74
2021/12/03 07:28:58;;;;;;;7.60;4.88;;;2.20;99.90;;;;;;5030610;28;20392;-74
2021/12/03 07:31:24;;;;;;;7.28;4.68;;;2.40;99.90;;;;;;5031262;28;20561;-74
2021/12/03 07:33:50;;;;;;;8.35;5.03;;;2.30;99.90;;;;;;5027259;28;20076;-74
2021/12/03 07:36:15;;;;;;;9.27;5.20;;;2.60;99.90;;;;;;5028861;28;20158;-74
2021/12/03 07:38:41;;;;;;;8.10;5.13;;;2.60;99.90;;;;;;5029938;28;20083;-74
2021/12/03 07:41:07;;;;;;;7.90;5.18;;;2.80;99.90;;;;;;5012490;28;20032;-73
2021/12/03 07:43:32;;;;;;;7.00;4.03;;;3.30;99.90;;;;;;5031146;28;20044;-73
2021/12/03 07:45:58;;;;;;;7.05;4.45;;;3.50;99.90;;;;;;5029173;28;20507;-74
2021/12/03 07:48:24;;;;;;;6.30;3.95;;;3.50;99.90;;;;;;5029217;28;20029;-73
2021/12/03 07:50:52;;;;;;;8.85;4.90;;;4.20;99.90;;;;;;5030029;28;20064;-73
2021/12/03 07:53:18;;;;;;;7.82;3.67;;;4.20;99.90;;;;;;5012304;28;20048;-73
2021/12/03 07:55:48;;;;;;;6.28;4.20;;;3.80;99.90;;;;;;5030528;28;20025;-73
2021/12/03 07:58:16;;;;;;;7.25;4.05;;;3.30;99.90;;;;;;5028995;28;20208;-73
2021/12/03 08:00:44;;;;;;;8.85;5.18;;;3.20;99.90;;;;;;5028819;28;20552;-73
2021/12/03 08:03:10;;;;;;;4.80;3.53;;;3.30;99.90;;;;;;5029440;28;20090;-74
2021/12/03 08:05:36;;;;;;;4.50;3.53;;;3.30;99.90;;;;;;5029477;28;20246;-73
2021/12/03 08:08:03;;;;;;;6.10;3.67;;;3.60;99.90;;;;;;5028240;28;20506;-73
2021/12/03 08:10:28;;;;;;;6.20;3.60;;;3.80;99.90;;;;;;5030676;28;20043;-73
2021/12/03 08:12:54;;;;;;;5.18;3.30;;;3.90;99.90;;;;;;5029411;28;20451;-73
2021/12/03 08:15:20;;;;;;;6.72;3.53;;;4.20;99.90;;;;;;5029231;28;20025;-73
2021/12/03 08:17:49;;;;;;;6.43;4.28;;;4.50;99.90;;;;;;5029056;28;20041;-73
2021/12/03 08:20:16;;;;;;;7.88;4.60;;;4.40;99.90;;;;;;5028132;28;20628;-73
2021/12/03 08:22:43;;;;;;;10.38;5.43;;;4.20;99.90;;;;;;5031121;28;20033;-73
2021/12/03 08:25:10;;;;;;;8.43;5.45;;;4.00;99.90;;;;;;5010658;28;20033;-73
2021/12/03 08:27:36;;;;;;;8.63;5.13;;;4.00;99.90;;;;;;5029164;28;20037;-73
2021/12/03 08:30:04;;;;;;;7.38;4.47;;;4.00;99.90;;;;;;5010457;28;20495;-74
2021/12/03 08:32:30;;;;;;;6.82;4.40;;;3.90;99.90;;;;;;5013893;28;20087;-74
2021/12/03 08:34:56;;;;;;;6.72;4.32;;;3.90;99.90;;;;;;5029818;28;20022;-74
2021/12/03 08:37:22;;;;;;;8.50;4.47;;;3.90;99.90;;;;;;5029546;28;20021;-74
2021/12/03 08:39:47;;;;;;;6.90;3.92;;;4.10;99.90;;;;;;5028471;28;20495;-74
2021/12/03 08:42:13;;;;;;;9.32;4.70;;;4.20;99.90;;;;;;5011139;28;20411;-73
2021/12/03 08:44:40;;;;;;;4.78;3.33;;;4.30;99.90;;;;;;5028578;28;20092;-73
2021/12/03 08:47:07;;;;;;;8.65;4.13;;;4.30;99.90;;;;;;5029352;28;20025;-73
2021/12/03 08:49:37;;;;;;;7.68;4.10;;;4.40;99.90;;;;;;5029295;28;20025;-74
2021/12/03 08:57:30;;;;;;;9.10;3.70;;;4.70;99.90;;;;;;5028659;28;20033;-73
2021/12/03 09:00:04;;;;;;;6.05;3.58;;;4.90;99.90;;;;;;5028258;28;20044;-74
2021/12/03 09:02:29;;;;;;;7.47;2.90;;;4.80;99.90;;;;;;5028976;28;20034;-73
2021/12/03 09:04:55;;;;;;;5.78;3.70;;;4.80;99.90;;;;;;5029443;28;20075;-74
2021/12/03 09:07:21;;;;;;;4.47;2.70;;;5.50;99.90;;;;;;5027661;28;20025;-73
2021/12/03 09:09:46;;;;;;;4.95;2.60;;;5.70;99.90;;;;;;5010215;28;20037;-73
2021/12/03 09:12:13;;;;;;;6.60;3.20;;;5.50;99.90;;;;;;5028154;28;20033;-74
2021/12/03 09:14:44;;;;;;;4.75;2.90;;;5.40;99.90;;;;;;5028198;28;20026;-73
2021/12/03 09:22:55;;;;;;;6.18;3.50;;;5.40;99.90;;;;;;5030036;28;20513;-74
2021/12/03 09:25:30;;;;;;;6.95;2.80;;;5.30;99.90;;;;;;5028718;28;20053;-74
2021/12/03 09:27:55;;;;;;;11.13;4.65;;;5.50;99.90;;;;;;5027916;28;20033;-74
2021/12/03 09:30:21;;;;;;;9.82;4.57;;;5.80;99.90;;;;;;5027740;28;20022;-74
2021/12/03 09:32:55;;;;;;;9.95;5.57;;;5.90;99.90;;;;;;5028354;28;20029;-75
2021/12/03 09:35:23;;;;;;;7.22;4.50;;;5.80;99.90;;;;;;5010662;28;20502;-74
2021/12/03 09:37:49;;;;;;;8.23;4.38;;;5.70;99.90;;;;;;5011844;28;20026;-74
2021/12/03 09:40:21;;;;;;;9.50;4.45;;;5.50;99.90;;;;;;5027896;28;20032;-74
2021/12/03 09:42:47;;;;;;;16.40;5.65;;;5.50;99.90;;;;;;5028404;28;20280;-74
2021/12/03 09:45:13;;;;;;;13.40;5.50;;;5.40;99.90;;;;;;5010223;28;20045;-74
2021/12/03 09:47:39;;;;;;;12.95;5.70;;;5.40;99.90;;;;;;5027872;28;20037;-74
2021/12/03 09:50:12;;;;;;;9.25;4.85;;;5.40;99.90;;;;;;5028243;28;20024;-75
2021/12/03 09:55:16;;;;;;;10.45;5.28;;;5.30;99.90;;;;;;5027355;28;20502;-74
2021/12/03 10:33:08;;;;;;;6.65;4.15;;;6.10;99.90;;;;;;4988941;28;20100;-73
2021/12/03 10:41:20;;;;;;;5.57;4.30;;;6.20;99.90;;;;;;4952480;29;20031;-74
2021/12/03 10:48:50;;;;;;;9.25;3.53;;;7.10;99.90;;;;;;4948875;28;20094;-74
2021/12/03 12:47:50;;;;;;;0.90;0.90;;;9.70;97.50;;;;;;5006298;28;20408;-74
2021/12/03 13:45:21;;;;;;;3.60;1.15;;;9.00;98.70;;;;;;5028686;28;20107;-74
2021/12/03 14:41:34;;;;;;;3.47;1.80;;;9.10;99.40;;;;;;5021763;28;20064;-74
2021/12/03 14:49:33;;;;;;;5.57;2.90;;;9.10;99.60;;;;;;5029898;28;20565;-74
2021/12/03 14:57:39;;;;;;;2.45;1.88;;;9.00;99.90;;;;;;5030082;28;20018;-74
2021/12/03 15:08:11;;;;;;;16.80;8.85;;;9.00;99.90;;;;;;5030243;28;20041;-74
2021/12/03 15:11:08;;;;;;;11.43;6.95;;;8.90;99.90;;;;;;5014114;28;20499;-74
2021/12/03 15:30:09;;;;;;;12.35;7.40;;;8.70;99.90;;;;;;5002718;28;20037;-73
2021/12/03 15:33:01;;;;;;;10.48;6.07;;;8.70;99.90;;;;;;5007995;28;20064;-73
2021/12/03 16:08:05;;;;;;;7.63;3.75;;;8.20;99.90;;;;;;5030829;28;20557;-74
2021/12/03 16:20:52;;;;;;;8.98;3.42;;;8.20;99.90;;;;;;5028905;28;20030;-74
2021/12/03 16:50:47;;;;;;;3.35;1.92;;;8.00;99.90;;;;;;5028207;28;20037;-74
2021/12/03 16:53:10;;;;;;;3.50;2.00;;;8.10;99.90;;;;;;5026514;28;20029;-74
2021/12/03 16:55:35;;;;;;;2.80;1.90;;;8.00;99.90;;;;;;5029258;28;20017;-74
2021/12/03 16:58:01;;;;;;;3.25;1.90;;;8.10;99.90;;;;;;5028356;28;20090;-74
2021/12/03 17:00:34;;;;;;;2.90;1.92;;;8.10;99.90;;;;;;5010189;28;20029;-74
2021/12/03 17:03:14;;;;;;;1.45;1.30;;;8.00;99.90;;;;;;5028248;28;20021;-74
2021/12/03 17:08:34;;;;;;;1.75;1.52;;;8.00;99.90;;;;;;5025008;28;20078;-74
2021/12/03 17:11:34;;;;;;;2.53;1.70;;;8.00;99.90;;;;;;5027889;28;20100;-74
2021/12/03 17:49:20;;;;;;;5.55;2.55;;;7.80;99.90;;;;;;4965941;28;20106;-76
2021/12/03 17:51:55;;;;;;;4.15;2.65;;;8.00;99.90;;;;;;4966392;28;20113;-75
2021/12/03 17:54:34;;;;;;;4.13;2.63;;;8.00;99.90;;;;;;4965775;28;20541;-76
2021/12/03 17:57:50;;;;;;;2.55;2.35;;;8.00;99.90;;;;;;4965204;28;20038;-76
2021/12/03 17:59:51;;;;;;;4.13;2.67;;;7.90;99.90;;;;;;4957967;28;20027;-76
2021/12/03 18:05:00;;;;;;;3.78;2.45;;;8.00;99.90;;;;;;4967490;28;20031;-76
2021/12/03 18:53:11;;;;;;;2.75;2.33;;;8.50;99.90;;;;;;5025430;28;20034;-75
2021/12/03 18:55:50;;;;;;;4.07;2.50;;;8.50;99.90;;;;;;5026338;28;20075;-75
2021/12/03 18:58:16;;;;;;;3.13;2.03;;;8.50;99.90;;;;;;5022893;28;20054;-75
2021/12/03 19:00:46;;;;;;;1.90;1.60;;;8.50;99.90;;;;;;5027364;28;20175;-75
2021/12/03 19:03:32;;;;;;;2.58;1.98;;;8.60;99.90;;;;;;5024418;28;20033;-75
2021/12/03 19:08:38;;;;;;;2.33;1.80;;;8.70;99.90;;;;;;5022671;28;20049;-75
2021/12/03 19:14:02;;;;;;;2.50;2.25;;;8.80;99.90;;;;;;5011675;28;20030;-75
2021/12/03 19:16:29;;;;;;;2.47;2.05;;;8.80;99.90;;;;;;5015152;28;20119;-74
2021/12/03 19:18:58;;;;;;;3.55;2.10;;;8.80;99.90;;;;;;5009532;28;20044;-75
2021/12/03 19:21:26;;;;;;;6.38;4.00;;;8.80;99.90;;;;;;4993751;28;20037;-75
2021/12/03 19:24:00;;;;;;;8.25;6.15;;;8.80;99.90;;;;;;5007715;28;20041;-75
2021/12/03 19:26:30;;;;;;;21.40;13.25;;;8.80;99.90;;;;;;5008664;28;20033;-75
2021/12/03 19:28:56;;;;;;;32.13;21.30;;;8.80;99.90;;;;;;5006647;28;20029;-75
2021/12/03 19:31:23;;;;;;;25.17;17.65;;;8.90;99.90;;;;;;5019317;28;20060;-75
2021/12/03 19:33:50;;;;;;;13.38;9.45;;;8.90;99.90;;;;;;5010824;28;20119;-75
2021/12/03 19:36:20;;;;;;;9.63;6.28;;;8.90;99.90;;;;;;5016267;28;20042;-75
2021/12/03 19:38:46;;;;;;;9.30;5.03;;;8.90;99.90;;;;;;4995923;28;20034;-74
2021/12/03 19:41:20;;;;;;;4.10;3.08;;;9.00;99.90;;;;;;5009765;28;20045;-74
2021/12/03 19:43:51;;;;;;;4.60;3.60;;;9.00;99.90;;;;;;5017466;28;20058;-75
2021/12/03 19:46:26;;;;;;;5.32;3.00;;;9.00;99.90;;;;;;5018874;28;20065;-74
2021/12/03 19:51:28;;;;;;;4.57;2.97;;;9.00;99.90;;;;;;5028102;28;20068;-74
2021/12/03 19:56:20;;;;;;;3.95;2.40;;;9.00;99.90;;;;;;5029488;28;20464;-74
2021/12/03 19:58:45;;;;;;;4.20;2.25;;;9.00;99.90;;;;;;5027233;28;20219;-74
2021/12/03 20:01:11;;;;;;;4.97;2.50;;;9.10;99.90;;;;;;5028078;28;20057;-74
2021/12/03 20:03:37;;;;;;;5.93;3.03;;;9.10;99.90;;;;;;5024160;28;20499;-75
2021/12/03 20:06:02;;;;;;;4.97;3.80;;;9.20;99.90;;;;;;5027469;28;20301;-75
2021/12/03 20:08:30;;;;;;;8.55;5.35;;;9.10;99.90;;;;;;5028336;28;20087;-75
2021/12/03 20:11:00;;;;;;;6.45;3.95;;;9.10;99.90;;;;;;5028563;28;20034;-74
2021/12/03 20:13:27;;;;;;;7.75;3.78;;;9.20;99.90;;;;;;5011360;28;20030;-75
2021/12/03 20:20:48;;;;;;;8.38;7.47;;;9.20;99.90;;;;;;5028763;28;20034;-75
2021/12/03 20:23:32;;;;;;;8.45;7.35;;;9.30;99.90;;;;;;5027728;28;20030;-74
2021/12/03 20:28:54;;;;;;;6.90;4.50;;;9.40;99.90;;;;;;5028532;28;20048;-75
2021/12/03 20:31:23;;;;;;;5.63;3.50;;;9.40;99.90;;;;;;5028474;28;20033;-75
2021/12/03 20:34:09;;;;;;;7.97;3.75;;;9.40;99.90;;;;;;5025320;28;20463;-74
2021/12/03 20:42:09;;;;;;;7.53;3.40;;;9.40;99.90;;;;;;5025671;28;20037;-75
2021/12/03 20:45:00;;;;;;;6.70;3.78;;;9.40;99.90;;;;;;5022345;28;20053;-75
2021/12/03 20:47:52;;;;;;;7.22;4.45;;;9.40;99.90;;;;;;5028612;28;20034;-75
2021/12/03 20:53:15;;;;;;;8.70;4.80;;;9.40;99.90;;;;;;5028836;28;20481;-75
2021/12/03 21:09:27;;;;;;;6.25;5.03;;;9.60;99.90;;;;;;5015700;28;20049;-75
2021/12/03 21:11:58;;;;;;;5.50;3.83;;;9.70;99.90;;;;;;4991235;28;20166;-75
2021/12/03 21:14:30;;;;;;;4.20;3.28;;;9.70;99.90;;;;;;5004851;28;20041;-75
2021/12/03 21:17:12;;;;;;;5.97;5.38;;;9.80;99.90;;;;;;5007196;28;20030;-75
2021/12/03 21:19:53;;;;;;;14.05;11.07;;;9.80;99.90;;;;;;5006842;28;20105;-75
2021/12/03 21:22:22;;;;;;;;;;;9.90;99.90;;;;;;5005171;28;20133;-75
2021/12/03 21:24:51;;;;;;;12.52;9.48;;;9.90;99.90;;;;;;5005280;28;20004;-75
2021/12/03 21:27:29;;;;;;;9.25;7.25;;;10.00;99.90;;;;;;5000915;28;20037;-75
2021/12/03 21:30:15;;;;;;;4.93;4.00;;;9.90;99.90;;;;;;4997443;28;20343;-75
2021/12/03 21:38:37;;;;;;;12.43;9.07;;;10.10;99.90;;;;;;5028738;28;20032;-75
2021/12/03 21:43:20;;;;;;;8.52;6.43;;;10.10;99.90;;;;;;5023628;28;20053;-75
2021/12/03 21:45:47;;;;;;;5.22;3.08;;;10.00;99.90;;;;;;5021601;28;20034;-75